Weather at Payson Airport

Public forecast

Using degrees Fahrenheit for public forecast. Weather courtesy of forecast.io.

Current aviation weather report (METAR) for Payson Airport

Retrieved 2021/03/05 23:35 UTC (38 minutes ago):

KPAN 052335Z AUTO 06007KT 040V100 10SM CLR 19/M09 A3017 RMK AO2

Closest aviation forecast (TAF) to Payson Airport

Closest forecast is Sedona Airport, 41.9 nm (77.6 km) NNW. Retrieved 2021-03-06 00:22 UTC (0 seconds ago):

TAF KSEZ 052320Z 0600/0624 08011G16KT P6SM SKC FM060900 08008KT P6SM SCT250 WS020/15035KT FM061600 15010KT P6SM SKC